ADDS METAR Data INFO
IDs: Format: Raw Decoded Include TAF

Data at: 1954 UTC 15 Dec 2017

KSLG 151856Z AUTO 31011KT 10SM BKN032 08/M02 RMK AO2 SLPNO T00781017 $
KSLG 151756Z AUTO 31006KT 10SM FEW020 SCT024 07/M01 A3020 RMK AO2 SLP234 6//// T00671006 10067 21017 58011
KSLG 151656Z AUTO 30007KT 10SM SCT015 06/01 A3023 RMK AO2 SLP245 T00560006
KSLG 151651Z AUTO 32007KT 10SM SCT015 05/00 A3023 RMK AO2
KSLG 151623Z AUTO 33007KT 10SM BKN013 04/01 A3023 RMK AO2
KSLG 151556Z AUTO 32010KT 10SM CLR 03/01 A3023 RMK AO2 SLP246 T00330006
KSLG 151456Z AUTO 29004KT 10SM FEW015 01/M01 A3022 RMK AO2 SLP244 T00111011 51014 FZRANO
KSLG 151446Z AUTO 26003KT 10SM SCT015 01/M02 A3022 RMK AO2 FZRANO
KSLG 151415Z AUTO 00000KT 10SM BKN015 M01/M03 A3022 RMK AO2 FZRANO
KSLG 151356Z AUTO 00000KT 10SM FEW022 SCT047 M01/M03 A3021 RMK AO2 SLP241 T10111033 FZRANO
KSLG 151347Z AUTO 00000KT 10SM SCT022 M01/M03 A3021 RMK AO2 FZRANO
KSLG 151335Z AUTO 00000KT 10SM BKN022 OVC045 M01/M03 A3021 RMK AO2 FZRANO
KSLG 151256Z AUTO 00000KT 10SM FEW016 SCT031 BKN045 M01/M03 A3020 RMK AO2 SLP236 T10111028 FZRANO
KSLG 151156Z AUTO 23003KT 10SM OVC041 00/M02 A3018 RMK AO2 SLP228 6//// 7//// T00001022 10006 21039 FZRANO
KSLG 151056Z AUTO 25004KT 10SM OVC043 M01/M03 A3017 RMK AO2 SLP224 T10061028 FZRANO
KSLG 150956Z AUTO 00000KT 10SM OVC080 M01/M03 RMK AO2 SLPNO T10111033 FZRANO $
KSLG 150856Z AUTO 20004KT 10SM OVC037 M02/M04 A3016 RMK AO2 SLP222 T10171039 53005 FZRANO
KSLG 150756Z AUTO 16003KT 10SM SCT039 BKN080 M03/M05 A3016 RMK AO2 SLP221 T10281050 FZRANO
KSLG 150656Z AUTO 17003KT 10SM SCT043 M03/M05 A3015 RMK AO2 SLP218 T10331050 FZRANO
KSLG 150556Z AUTO 00000KT 10SM CLR M03/M05 A3015 RMK AO2 SLP217 6//// T10281050 10017 21028 400611028 58001 FZRANO
KSLG 150456Z AUTO 14003KT 10SM CLR M02/M04 A3015 RMK AO2 SLP218 T10221044 FZRANO
KSLG 150356Z AUTO 00000KT 8SM CLR M01/M04 A3015 RMK AO2 SLP219 T10111039 FZRANO
KSLG 150256Z AUTO 00000KT 10SM CLR 00/M04 A3015 RMK AO2 SLP218 T00001039 50009 FZRANO
KSLG 150156Z AUTO 00000KT 10SM CLR 01/M04 A3015 RMK AO2 SLP218 T00061039 FZRANO
KSLG 150056Z AUTO 00000KT 10SM CLR 01/M04 A3014 RMK AO2 SLP216 T00061044 FZRANO
KSLG 142356Z AUTO 34005KT 10SM SCT038 02/M04 A3012 RMK AO2 SLP208 6//// T00171044 10061 20011 53010 FZRANO
KSLG 142256Z AUTO 35009KT 10SM OVC038 03/M04 A3011 RMK AO2 SLP201 T00331044
KSLG 142156Z AUTO 34008KT 10SM OVC040 04/M03 A3010 RMK AO2 SLP199 T00441033
KSLG 142056Z AUTO 34009KT 10SM OVC038 05/M03 A3009 RMK AO2 SLP196 6//// T00501033 56006
KSLG 141956Z AUTO 35009KT 10SM OVC040 06/M03 A3010 RMK AO2 SLP197 T00561033
KSLG 141856Z AUTO 34007KT 10SM OVC040 06/M03 A3010 RMK AO2 SLP198 T00561033
KSLG 141756Z AUTO VRB04KT 10SM CLR 06/M04 A3011 RMK AO2 SLP201 6//// T00561039 10056 20011 50006
KSLG 141656Z AUTO 03009KT 10SM CLR 05/M04 A3012 RMK AO2 SLP206 T00501039
KSLG 141556Z AUTO 03011KT 10SM CLR 04/M03 A3009 RMK AO2 SLP195 T00391033
KSLG 141456Z AUTO 01008KT 10SM CLR 03/M02 A3009 RMK AO2 SLP194 T00331022 53022
KSLG 141356Z AUTO 36007KT 10SM CLR 02/M02 A3006 RMK AO2 SLP186 T00221022 FZRANO
KSLG 141256Z AUTO 01009KT 10SM CLR 02/M03 A3002 RMK AO2 SLP170 T00171028 FZRANO
KSLG 141156Z AUTO 35005KT 10SM CLR 02/M02 A3002 RMK AO2 SLP171 T00221022 10044 20011 53020 FZRANO
KSLG 141056Z AUTO 36006KT 10SM CLR 03/M02 A2999 RMK AO2 SLP159 T00331017
KSLG 140956Z AUTO 04007KT 10SM CLR 04/M02 A2997 RMK AO2 SLP150 T00441017
KSLG 140856Z AUTO 01006KT 10SM CLR 03/M02 A2996 RMK AO2 SLP147 T00331017 53009
KSLG 140756Z AUTO 00000KT 10SM CLR 02/M04 A2995 RMK AO2 SLP144 T00171039 FZRANO